Weather observations for the past three days for
Galveston, Scholes Field
| Date | Time (cdt) | Wind (mph) | Vis. (mi.) | Weather | Sky Cond. | Temperature (ºF) | Relative Humidity | Wind Chill (°F) | Heat Index (°F) | Pressure | Precipitation (in) | ||||||
|---|---|---|---|---|---|---|---|---|---|---|---|---|---|---|---|---|---|
| Air | Dwpt | 6 hour | altimeter (in) | sea level (mb) | 1 hr | 3 hr | 6 hr | ||||||||||
| Max. | Min. | ||||||||||||||||
| 04 | 15:52 | S 15 | 10.00 | A Few Clouds | FEW032 | 78.1 | 63 | 60% | 80 | 29.94 | 1013.7 | ||||||
| 04 | 14:52 | S 13 G 25 | 10.00 | Fair | CLR | 79 | 62.1 | 56% | 80 | 29.96 | 1014.5 | ||||||
| 04 | 13:52 | S 15 | 10.00 | A Few Clouds | FEW035 | 78.1 | 62.1 | 58% | 80 | 29.97 | 1014.9 | ||||||
| 04 | 12:52 | S 16 | 10.00 | A Few Clouds | FEW034 | 78.1 | 61 | 79 | 69.1 | 56% | 80 | 29.99 | 1015.6 | ||||
| 04 | 11:52 | S 16 | 10.00 | A Few Clouds | FEW034 | 78.1 | 61 | 56% | 80 | 30.01 | 1016.3 | ||||||
| 04 | 08:52 | S 14 | 10.00 | A Few Clouds | FEW037 | 73.9 | 59 | 60% | 30.02 | 1016.4 | |||||||
| 04 | 07:52 | S 9 | 10.00 | A Few Clouds | FEW036 | 72 | 59 | 64% | 30.02 | 1016.4 | |||||||
| 04 | 06:52 | S 12 | 10.00 | Fair | CLR | 69.1 | 55.9 | 69.1 | 66.9 | 63% | 30.01 | 1016.2 | |||||
| 04 | 05:52 | S 8 | 10.00 | Fair | CLR | 68 | 50 | 53% | 30 | 1016.0 | |||||||
| 04 | 04:52 | S 10 | 10.00 | Fair | CLR | 68 | 50 | 53% | 30.01 | 1016.2 | |||||||
| 04 | 03:52 | S 13 | 10.00 | Fair | CLR | 68 | 50 | 53% | 30.02 | 1016.5 | |||||||
| 04 | 02:52 | SE 10 | 10.00 | Fair | CLR | 68 | 50 | 53% | 30.03 | 1017.0 | |||||||
| 04 | 01:52 | S 12 | 10.00 | Fair | CLR | 69.1 | 50 | 51% | 30.06 | 1017.9 | |||||||
| 04 | 00:52 | SE 13 | 10.00 | Fair | CLR | 68 | 50 | 72 | 66 | 53% | 30.07 | 1018.3 | |||||
| 03 | 23:52 | SE 9 | 10.00 | Fair | CLR | 66.9 | 50 | 55% | 30.09 | 1019.0 | |||||||
| 03 | 22:52 | SE 8 | 10.00 | Fair | CLR | 66.9 | 50 | 55% | 30.09 | 1019.0 | |||||||
| 03 | 21:52 | SE 9 | 10.00 | Fair | CLR | 66.9 | 48.9 | 53% | 30.09 | 1018.9 | |||||||
| 03 | 20:52 | S 10 | 10.00 | Fair | CLR | 68 | 48.9 | 51% | 30.09 | 1018.9 | |||||||
| 03 | 19:52 | S 5 | 10.00 | Fair | CLR | 69.1 | 50 | 51% | 30.09 | 1018.8 | |||||||
| 03 | 18:52 | S 7 | 10.00 | Fair | CLR | 72 | 48 | 75.9 | 72 | 43% | 30.1 | 1019.1 | |||||
| 03 | 17:52 | SE 9 | 10.00 | Fair | CLR | 73.9 | 48.9 | 41% | 30.11 | 1019.5 | |||||||
| 03 | 16:52 | SE 9 | 10.00 | Fair | CLR | 75 | 48.9 | 40% | 77 | 30.12 | 1019.9 | ||||||
| 03 | 15:52 | SE 8 G 17 | 10.00 | Fair | CLR | 75 | 46.9 | 37% | 77 | 30.14 | 1020.5 | ||||||
| 03 | 14:52 | SE 10 | 10.00 | Fair | CLR | 75.9 | 48 | 37% | 78 | 30.16 | 1021.3 | ||||||
| 03 | 13:52 | SE 10 | 10.00 | Fair | CLR | 75 | 48 | 39% | 77 | 30.19 | 1022.2 | ||||||
| 03 | 12:52 | E 10 | 10.00 | Fair | CLR | 75 | 46.9 | 75.9 | 64.9 | 37% | 77 | 30.21 | 1023.0 | ||||
| 03 | 11:52 | E 12 | 10.00 | Fair | CLR | 73.9 | 46 | 37% | 30.22 | 1023.4 | |||||||
| 03 | 10:52 | E 10 | 10.00 | Fair | CLR | 73.9 | 46.9 | 38% | 30.22 | 1023.4 | |||||||
| 03 | 09:52 | E 9 | 10.00 | Fair | CLR | 73.9 | 46 | 37% | 30.21 | 1022.9 | |||||||
| 03 | 08:52 | E 7 | 10.00 | Fair | CLR | 73 | 46.9 | 40% | 30.19 | 1022.4 | |||||||
| 03 | 07:52 | NE 6 | 10.00 | Fair | CLR | 69.1 | 48 | 47% | 30.18 | 1022.1 | |||||||
| 03 | 06:52 | NE 5 | 10.00 | Fair | CLR | 66 | 46.9 | 66.9 | 63 | 50% | 30.18 | 1021.8 | |||||
| 03 | 05:52 | E 6 | 10.00 | Fair | CLR | 64.9 | 48 | 54% | 30.16 | 1021.1 | |||||||
| 03 | 04:52 | E 6 | 10.00 | Fair | CLR | 64 | 48 | 56% | 30.15 | 1020.9 | |||||||
| 03 | 03:52 | NE 7 | 10.00 | Fair | CLR | 64.9 | 50 | 59% | 30.15 | 1021.0 | |||||||
| 03 | 02:52 | NE 7 | 10.00 | Fair | CLR | 64.9 | 50 | 59% | 30.15 | 1020.8 | |||||||
| 03 | 01:52 | NE 8 | 10.00 | Fair | CLR | 66 | 53.1 | 63% | 30.15 | 1020.8 | |||||||
| 03 | 00:52 | NE 6 | 10.00 | Fair | CLR | 64.9 | 52 | 73 | 64.9 | 63% | 30.15 | 1020.9 | |||||
| 02 | 23:52 | NE 10 | 10.00 | Fair | CLR | 66.9 | 51.1 | 57% | 30.13 | 1020.3 | |||||||
| 02 | 22:52 | NE 9 | 10.00 | Fair | CLR | 68 | 52 | 57% | 30.13 | 1020.2 | |||||||
| 02 | 21:52 | NE 9 | 10.00 | Fair | CLR | 68 | 52 | 57% | 30.12 | 1020.0 | |||||||
| 02 | 20:52 | NE 9 | 10.00 | Fair | CLR | 69.1 | 50 | 51% | 30.11 | 1019.4 | |||||||
| 02 | 19:52 | N 13 | 10.00 | Fair | CLR | 71.1 | 45 | 39% | 30.08 | 1018.7 | |||||||
| 02 | 18:52 | N 16 | 10.00 | Fair | CLR | 73 | 46.9 | 73.9 | 70 | 40% | 30.07 | 1018.2 | |||||
| 02 | 17:52 | N 16 | 10.00 | Fair | CLR | 73.9 | 46.9 | 38% | 30.06 | 1017.9 | |||||||
| 02 | 16:52 | N 17 | 10.00 | Fair | CLR | 73.9 | 48 | 40% | 30.06 | 1017.9 | |||||||
| 02 | 15:52 | N 20 | 10.00 | Fair | CLR | 73.9 | 48.9 | 41% | 30.07 | 1018.1 | |||||||
| 02 | 14:52 | N 20 | 10.00 | Fair | CLR | 72 | 48 | 43% | 30.09 | 1018.8 | |||||||
| 02 | 13:52 | N 20 | 10.00 | Fair | CLR | 72 | 50 | 46% | 30.09 | 1019.0 | |||||||
| 02 | 12:52 | N 18 G 29 | 10.00 | Fair | CLR | 70 | 52 | 70 | 57 | 53% | 30.12 | 1019.8 | |||||
| 02 | 11:52 | N 16 | 10.00 | Fair | CLR | 68 | 54 | 61% | 30.13 | 1020.2 | |||||||
| 02 | 10:52 | N 18 | 10.00 | Fair | CLR | 66 | 55 | 68% | 30.11 | 1019.6 | |||||||
| 02 | 09:52 | N 21 | 10.00 | Fair and Breezy | CLR | 63 | 55 | 76% | 30.1 | 1019.3 | |||||||
| 02 | 08:52 | N 20 G 29 | 10.00 | Fair | CLR | 61 | 54 | 78% | 30.09 | 1019.0 | |||||||
| 02 | 07:52 | N 21 | 10.00 | Fair and Breezy | CLR | 57.9 | 52 | 81% | 30.07 | 1018.2 | |||||||
| 02 | 06:52 | N 20 G 28 | 10.00 | A Few Clouds | FEW014 | 57 | 52 | 57.9 | 55.9 | 83% | 30.04 | 1017.3 | |||||
| 02 | 05:52 | NE 20 | 10.00 | Fair | CLR | 55.9 | 50 | 81% | 30.01 | 1016.3 | |||||||
| 02 | 04:52 | N 18 | 10.00 | Mostly Cloudy | BKN013 | 57 | 53.1 | 87% | 29.99 | 1015.5 | |||||||
| 02 | 03:52 | N 16 G 26 | 10.00 | Overcast | OVC012 | 57.9 | 54 | 87% | 29.98 | 1015.1 | |||||||
| 02 | 02:52 | N 18 | 10.00 | Overcast | BKN012 OVC032 | 57.9 | 54 | 87% | 29.98 | 1015.0 | |||||||
| 02 | 01:52 | NE 25 G 35 | 10.00 | Overcast and Breezy | BKN012 OVC028 | 57.9 | 55 | 90% | 29.96 | 1014.6 | |||||||
| 02 | 00:52 | N 25 G 36 | 10.00 | Overcast and Breezy | OVC012 | 57.9 | 55 | 63 | 57.9 | 90% | 29.96 | 1014.5 | 0.65 | ||||
| 01 | 23:52 | N 25 G 33 | 10.00 | Overcast and Breezy | OVC010 | 59 | 55.9 | 90% | 29.97 | 1014.8 | 0.04 | ||||||
| 01 | 22:52 | NE 20 G 29 | 8.00 | Overcast | BKN012 OVC017 | 60.1 | 57.9 | 93% | 29.95 | 1014.3 | 0.02 | ||||||
| 01 | 21:52 | N 20 G 26 | 7.00 | Overcast | OVC009 | 62.1 | 60.1 | 93% | 29.92 | 1013.3 | 0.14 | 0.59 | |||||
| 01 | 20:52 | NE 21 | 3.00 | Fog/Mist and Breezy | SCT009 BKN034 OVC048 | 61 | 59 | 93% | 29.89 | 1012.2 | 0.44 | ||||||
| 01 | 19:52 | N 29 G 40 | 8.00 | Overcast and Windy | OVC011 | 63 | 60.1 | 90% | 29.85 | 1010.7 | 0.01 | ||||||
| 01 | 18:52 | NE 25 G 35 | 10.00 | Overcast and Breezy | BKN011 OVC041 | 63 | 61 | 66 | 63 | 93% | 29.81 | 1009.2 | 0.02 | 0.58 | |||
| 01 | 17:52 | NE 23 G 31 | 4.00 | Fog/Mist and Breezy | BKN008 OVC012 | 64 | 62.1 | 93% | 29.8 | 1009.1 | 0.07 | ||||||
| 01 | 16:52 | E 28 G 40 | 2.50 | Thunderstorm Fog/Mist and Windy | BKN009 BKN041 OVC050 | 64 | 63 | 96% | 29.73 | 1006.6 | 0.19 | ||||||
| Date | Time (cdt) | Wind (mph) | Vis. (mi.) | Weather | Sky Cond. | Air | Dwpt | Max. | Min. | Relative Humidity | Wind Chill (°F) | Heat Index (°F) | altimeter (in) | sea level (mb) | 1 hr | 3 hr | 6 hr |
| 6 hour | |||||||||||||||||
| Temperature (ºF) | Pressure | Precipitation (in) | |||||||||||||||